Terminal Aerodrome Forecast
Issued by NWS Duluth, MN

Home | Current Version | Previous Version | Text Only | Print | Product List | Glossary On
Versions: 1 2 3 4 5 6 7 8 9 10 11 12 13 14 15 16
000
FTUS43 KDLH 232300
TAFINL
TAF
KINL 232336Z 2400/2424 12012G19KT P6SM OVC130
     FM240200 12010KT P6SM OVC110
     FM240800 12008KT P6SM SCT020 OVC040
     FM241000 12008KT 5SM -RA BR OVC020
     FM241500 13010KT 4SM -RA BR OVC010
     FM242100 10009KT 3SM -RA BR OVC007=

USA.gov is the U.S. government's official web portal to all federal, state and local government web resources and services.